PWSweather.com
Personal Weather Stations
Station Observations
PICKERING
North Yorkshire, PickeringGB

North YorkshirePickeringGB

Lat: 54.2494, Lon: -0.7725

Elevation: 192

Station Type: Oregon Scientific WMR100

http://www.yorkshirewalker.co.uk/weather/

High Low Average
Temperature 44.1°F6.7°C 29.1°F-1.6°C 33.8°F1.0°C
Dew Point 37.4°F3.0°C 23.0°F-5.0°C 28.3°F-2.1°C
Winds 6.9 mph 11.1 kmh 0.1 mph 0.2 kmh 2.0 mph ENE3.2 kmh ENE
Wind Gusts 11.9 mph19.2 kmh 0.9 mph1.4 kmh 4.0 mph6.4 kmh
Humidity 87% 77% 83%
Pressure 30.57 in1035.2 mb 30.36 in1028.1 mb -
Precipitation 0.00 in0.0 mm - -
Hour Temp Dew Point Humidity Winds Wind Gusts Pressure Precip Precip Rate Daily Precip Total
12:00 AM 33.3°F0.7°C 30.2°F-1.0°C 84% 1.1 mph NE1.8 kmh NE 2.9 mph4.7 kmh 30.36 in1028.1 mb 0.00 in0.0 mm 0.00 in0.0 mm 0.00 in0.0 mm
12:05 AM 33.6°F0.9°C 30.2°F-1.0°C 84% 1.7 mph NE2.7 kmh NE 2.9 mph4.7 kmh 30.36 in1028.1 mb 0.00 in0.0 mm 0.00 in0.0 mm 0.00 in0.0 mm
12:10 AM 33.6°F0.9°C 30.2°F-1.0°C 85% 2.4 mph NE3.9 kmh NE 3.6 mph5.8 kmh 30.36 in1028.1 mb 0.00 in0.0 mm 0.00 in0.0 mm 0.00 in0.0 mm
12:15 AM 33.6°F0.9°C 30.2°F-1.0°C 85% 2.7 mph NE4.3 kmh NE 3.6 mph5.8 kmh 30.36 in1028.1 mb 0.00 in0.0 mm 0.00 in0.0 mm 0.00 in0.0 mm
12:20 AM 33.8°F1.0°C 30.2°F-1.0°C 85% 2.3 mph NE3.7 kmh NE 3.6 mph5.8 kmh 30.36 in1028.1 mb 0.00 in0.0 mm 0.00 in0.0 mm 0.00 in0.0 mm
12:25 AM 34.2°F1.2°C 30.2°F-1.0°C 85% 2.0 mph NE3.2 kmh NE 3.6 mph5.8 kmh 30.36 in1028.1 mb 0.00 in0.0 mm 0.00 in0.0 mm 0.00 in0.0 mm
12:30 AM 34.0°F1.1°C 30.2°F-1.0°C 85% 2.1 mph NE3.4 kmh NE 3.6 mph5.8 kmh 30.36 in1028.1 mb 0.00 in0.0 mm 0.00 in0.0 mm 0.00 in0.0 mm
12:35 AM 34.0°F1.1°C 30.2°F-1.0°C 85% 1.8 mph NE2.9 kmh NE 2.7 mph4.3 kmh 30.36 in1028.1 mb 0.00 in0.0 mm 0.00 in0.0 mm 0.00 in0.0 mm
12:40 AM 34.0°F1.1°C 30.2°F-1.0°C 85% 1.9 mph NE3.1 kmh NE 2.7 mph4.3 kmh 30.36 in1028.1 mb 0.00 in0.0 mm 0.00 in0.0 mm 0.00 in0.0 mm
12:45 AM 33.6°F0.9°C 30.2°F-1.0°C 85% 1.7 mph NE2.7 kmh NE 2.7 mph4.3 kmh 30.36 in1028.1 mb 0.00 in0.0 mm 0.00 in0.0 mm 0.00 in0.0 mm
12:50 AM 33.6°F0.9°C 30.2°F-1.0°C 85% 1.4 mph NE2.3 kmh NE 2.7 mph4.3 kmh 30.36 in1028.1 mb 0.00 in0.0 mm 0.00 in0.0 mm 0.00 in0.0 mm
12:55 AM 33.6°F0.9°C 30.2°F-1.0°C 85% 1.6 mph NE2.6 kmh NE 2.7 mph4.3 kmh 30.36 in1028.1 mb 0.00 in0.0 mm 0.00 in0.0 mm 0.00 in0.0 mm
01:00 AM 34.9°F1.6°C 30.2°F-1.0°C 85% 4.8 mph NE7.7 kmh NE 11.0 mph17.7 kmh 30.39 in1029.1 mb 0.00 in0.0 mm 0.00 in0.0 mm 0.00 in0.0 mm
01:05 AM 35.2°F1.8°C 32.0°F0.0°C 85% 6.9 mph ENE11.1 kmh ENE 11.0 mph17.7 kmh 30.39 in1029.1 mb 0.00 in0.0 mm 0.00 in0.0 mm 0.00 in0.0 mm
01:10 AM 35.2°F1.8°C 32.0°F0.0°C 85% 5.3 mph ENE8.5 kmh ENE 9.6 mph15.4 kmh 30.39 in1029.1 mb 0.00 in0.0 mm 0.00 in0.0 mm 0.00 in0.0 mm
01:15 AM 34.7°F1.5°C 30.2°F-1.0°C 85% 3.2 mph NE5.1 kmh NE 7.2 mph11.6 kmh 30.39 in1029.1 mb 0.00 in0.0 mm 0.00 in0.0 mm 0.00 in0.0 mm
01:20 AM 34.5°F1.4°C 30.2°F-1.0°C 85% 1.8 mph NE2.9 kmh NE 4.0 mph6.4 kmh 30.39 in1029.1 mb 0.00 in0.0 mm 0.00 in0.0 mm 0.00 in0.0 mm
01:25 AM 34.5°F1.4°C 30.2°F-1.0°C 85% 0.7 mph NNE1.1 kmh NNE 2.9 mph4.7 kmh 30.39 in1029.1 mb 0.00 in0.0 mm 0.00 in0.0 mm 0.00 in0.0 mm
01:30 AM 34.7°F1.5°C 30.2°F-1.0°C 85% 0.9 mph NE1.4 kmh NE 2.0 mph3.2 kmh 30.39 in1029.1 mb 0.00 in0.0 mm 0.00 in0.0 mm 0.00 in0.0 mm
01:35 AM 34.7°F1.5°C 30.2°F-1.0°C 85% 1.2 mph NNE1.9 kmh NNE 2.5 mph4.0 kmh 30.39 in1029.1 mb 0.00 in0.0 mm 0.00 in0.0 mm 0.00 in0.0 mm
01:40 AM 34.7°F1.5°C 30.2°F-1.0°C 85% 1.8 mph N2.9 kmh N 4.0 mph6.4 kmh 30.39 in1029.1 mb 0.00 in0.0 mm 0.00 in0.0 mm 0.00 in0.0 mm
01:45 AM 34.5°F1.4°C 30.2°F-1.0°C 85% 2.4 mph N3.9 kmh N 4.0 mph6.4 kmh 30.39 in1029.1 mb 0.00 in0.0 mm 0.00 in0.0 mm 0.00 in0.0 mm
01:50 AM 34.5°F1.4°C 30.2°F-1.0°C 85% 2.2 mph NNE3.5 kmh NNE 4.0 mph6.4 kmh 30.39 in1029.1 mb 0.00 in0.0 mm 0.00 in0.0 mm 0.00 in0.0 mm
01:55 AM 34.7°F1.5°C 30.2°F-1.0°C 85% 2.0 mph NE3.2 kmh NE 3.6 mph5.8 kmh 30.39 in1029.1 mb 0.00 in0.0 mm 0.00 in0.0 mm 0.00 in0.0 mm
02:00 AM 34.5°F1.4°C 30.2°F-1.0°C 85% 2.8 mph NE4.5 kmh NE 5.6 mph9.0 kmh 30.39 in1029.1 mb 0.00 in0.0 mm 0.00 in0.0 mm 0.00 in0.0 mm
02:05 AM 34.3°F1.3°C 30.2°F-1.0°C 85% 3.1 mph NE5.0 kmh NE 6.3 mph10.1 kmh 30.39 in1029.1 mb 0.00 in0.0 mm 0.00 in0.0 mm 0.00 in0.0 mm
02:10 AM 34.0°F1.1°C 30.2°F-1.0°C 85% 2.3 mph ENE3.7 kmh ENE 6.3 mph10.1 kmh 30.39 in1029.1 mb 0.00 in0.0 mm 0.00 in0.0 mm 0.00 in0.0 mm
02:15 AM 33.6°F0.9°C 30.2°F-1.0°C 84% 1.8 mph E2.9 kmh E 2.9 mph4.7 kmh 30.39 in1029.1 mb 0.00 in0.0 mm 0.00 in0.0 mm 0.00 in0.0 mm
02:20 AM 33.4°F0.8°C 30.2°F-1.0°C 84% 1.7 mph E2.7 kmh E 2.9 mph4.7 kmh 30.39 in1029.1 mb 0.00 in0.0 mm 0.00 in0.0 mm 0.00 in0.0 mm
02:25 AM 33.3°F0.7°C 30.2°F-1.0°C 84% 1.5 mph ENE2.4 kmh ENE 2.5 mph4.0 kmh 30.39 in1029.1 mb 0.00 in0.0 mm 0.00 in0.0 mm 0.00 in0.0 mm
02:30 AM 33.3°F0.7°C 30.2°F-1.0°C 84% 1.5 mph NE2.4 kmh NE 2.2 mph3.5 kmh 30.42 in1030.1 mb 0.00 in0.0 mm 0.00 in0.0 mm 0.00 in0.0 mm
02:35 AM 33.8°F1.0°C 30.2°F-1.0°C 84% 2.1 mph ENE3.4 kmh ENE 5.6 mph9.0 kmh 30.42 in1030.1 mb 0.00 in0.0 mm 0.00 in0.0 mm 0.00 in0.0 mm
02:40 AM 33.8°F1.0°C 30.2°F-1.0°C 85% 2.6 mph NE4.2 kmh NE 5.6 mph9.0 kmh 30.42 in1030.1 mb 0.00 in0.0 mm 0.00 in0.0 mm 0.00 in0.0 mm
02:45 AM 33.6°F0.9°C 30.2°F-1.0°C 85% 2.4 mph NE3.9 kmh NE 3.8 mph6.1 kmh 30.42 in1030.1 mb 0.00 in0.0 mm 0.00 in0.0 mm 0.00 in0.0 mm
02:50 AM 33.4°F0.8°C 30.2°F-1.0°C 85% 1.4 mph NE2.3 kmh NE 2.9 mph4.7 kmh 30.42 in1030.1 mb 0.00 in0.0 mm 0.00 in0.0 mm 0.00 in0.0 mm
02:55 AM 33.3°F0.7°C 30.2°F-1.0°C 85% 1.1 mph NE1.8 kmh NE 2.0 mph3.2 kmh 30.42 in1030.1 mb 0.00 in0.0 mm 0.00 in0.0 mm 0.00 in0.0 mm
03:00 AM 33.3°F0.7°C 30.2°F-1.0°C 85% 1.4 mph NNE2.3 kmh NNE 2.0 mph3.2 kmh 30.42 in1030.1 mb 0.00 in0.0 mm 0.00 in0.0 mm 0.00 in0.0 mm
03:05 AM 33.3°F0.7°C 30.2°F-1.0°C 85% 1.5 mph NNE2.4 kmh NNE 2.2 mph3.5 kmh 30.42 in1030.1 mb 0.00 in0.0 mm 0.00 in0.0 mm 0.00 in0.0 mm
03:10 AM 33.3°F0.7°C 30.2°F-1.0°C 85% 1.6 mph NNE2.6 kmh NNE 3.1 mph5.0 kmh 30.42 in1030.1 mb 0.00 in0.0 mm 0.00 in0.0 mm 0.00 in0.0 mm
03:15 AM 33.3°F0.7°C 30.2°F-1.0°C 85% 1.9 mph NE3.1 kmh NE 3.1 mph5.0 kmh 30.42 in1030.1 mb 0.00 in0.0 mm 0.00 in0.0 mm 0.00 in0.0 mm
03:20 AM 33.3°F0.7°C 30.2°F-1.0°C 85% 2.0 mph NE3.2 kmh NE 4.7 mph7.6 kmh 30.42 in1030.1 mb 0.00 in0.0 mm 0.00 in0.0 mm 0.00 in0.0 mm
03:25 AM 33.1°F0.6°C 30.2°F-1.0°C 85% 2.1 mph NE3.4 kmh NE 4.7 mph7.6 kmh 30.42 in1030.1 mb 0.00 in0.0 mm 0.00 in0.0 mm 0.00 in0.0 mm
03:30 AM 33.1°F0.6°C 30.2°F-1.0°C 85% 2.6 mph NE4.2 kmh NE 3.6 mph5.8 kmh 30.42 in1030.1 mb 0.00 in0.0 mm 0.00 in0.0 mm 0.00 in0.0 mm
03:35 AM 32.9°F0.5°C 30.2°F-1.0°C 85% 2.7 mph NE4.3 kmh NE 4.0 mph6.4 kmh 30.42 in1030.1 mb 0.00 in0.0 mm 0.00 in0.0 mm 0.00 in0.0 mm
03:40 AM 32.9°F0.5°C 30.2°F-1.0°C 85% 1.8 mph NE2.9 kmh NE 4.0 mph6.4 kmh 30.42 in1030.1 mb 0.00 in0.0 mm 0.00 in0.0 mm 0.00 in0.0 mm
03:45 AM 32.7°F0.4°C 28.4°F-2.0°C 85% 1.2 mph NE1.9 kmh NE 2.5 mph4.0 kmh 30.42 in1030.1 mb 0.00 in0.0 mm 0.00 in0.0 mm 0.00 in0.0 mm
03:50 AM 32.5°F0.3°C 28.4°F-2.0°C 85% 1.1 mph NE1.8 kmh NE 2.0 mph3.2 kmh 30.42 in1030.1 mb 0.00 in0.0 mm 0.00 in0.0 mm 0.00 in0.0 mm
03:55 AM 32.4°F0.2°C 26.6°F-3.0°C 85% 1.2 mph NE1.9 kmh NE 2.0 mph3.2 kmh 30.42 in1030.1 mb 0.00 in0.0 mm 0.00 in0.0 mm 0.00 in0.0 mm
04:00 AM 32.4°F0.2°C 26.6°F-3.0°C 85% 1.5 mph NE2.4 kmh NE 2.9 mph4.7 kmh 30.42 in1030.1 mb 0.00 in0.0 mm 0.00 in0.0 mm 0.00 in0.0 mm
04:05 AM 32.4°F0.2°C 26.6°F-3.0°C 85% 1.6 mph NE2.6 kmh NE 3.4 mph5.5 kmh 30.42 in1030.1 mb 0.00 in0.0 mm 0.00 in0.0 mm 0.00 in0.0 mm
04:10 AM 32.0°F0.0°C 26.6°F-3.0°C 85% 1.3 mph NE2.1 kmh NE 3.4 mph5.5 kmh 30.42 in1030.1 mb 0.00 in0.0 mm 0.00 in0.0 mm 0.00 in0.0 mm
04:15 AM 31.6°F-0.2°C 26.6°F-3.0°C 85% 0.9 mph NE1.4 kmh NE 1.6 mph2.6 kmh 30.42 in1030.1 mb 0.00 in0.0 mm 0.00 in0.0 mm 0.00 in0.0 mm
04:20 AM 31.3°F-0.4°C 26.6°F-3.0°C 85% 0.3 mph NE0.5 kmh NE 1.1 mph1.8 kmh 30.42 in1030.1 mb 0.00 in0.0 mm 0.00 in0.0 mm 0.00 in0.0 mm
04:25 AM 30.9°F-0.6°C 24.8°F-4.0°C 84% 0.3 mph NNW0.5 kmh NNW 0.9 mph1.4 kmh 30.42 in1030.1 mb 0.00 in0.0 mm 0.00 in0.0 mm 0.00 in0.0 mm
04:30 AM 30.7°F-0.7°C 24.8°F-4.0°C 84% 0.8 mph NNW1.3 kmh NNW 1.3 mph2.1 kmh 30.42 in1030.1 mb 0.00 in0.0 mm 0.00 in0.0 mm 0.00 in0.0 mm
04:35 AM 30.7°F-0.7°C 24.8°F-4.0°C 85% 1.2 mph N1.9 kmh N 1.3 mph2.1 kmh 30.42 in1030.1 mb 0.00 in0.0 mm 0.00 in0.0 mm 0.00 in0.0 mm
04:40 AM 30.9°F-0.6°C 24.8°F-4.0°C 85% 1.4 mph N2.3 kmh N 2.0 mph3.2 kmh 30.42 in1030.1 mb 0.00 in0.0 mm 0.00 in0.0 mm 0.00 in0.0 mm
04:45 AM 31.1°F-0.5°C 26.6°F-3.0°C 85% 2.0 mph N3.2 kmh N 3.1 mph5.0 kmh 30.42 in1030.1 mb 0.00 in0.0 mm 0.00 in0.0 mm 0.00 in0.0 mm
04:50 AM 31.6°F-0.2°C 26.6°F-3.0°C 85% 2.0 mph NNE3.2 kmh NNE 3.1 mph5.0 kmh 30.42 in1030.1 mb 0.00 in0.0 mm 0.00 in0.0 mm 0.00 in0.0 mm
04:55 AM 31.8°F-0.1°C 26.6°F-3.0°C 85% 1.9 mph NE3.1 kmh NE 3.6 mph5.8 kmh 30.42 in1030.1 mb 0.00 in0.0 mm 0.00 in0.0 mm 0.00 in0.0 mm
05:00 AM 31.8°F-0.1°C 26.6°F-3.0°C 85% 2.4 mph NE3.9 kmh NE 3.6 mph5.8 kmh 30.42 in1030.1 mb 0.00 in0.0 mm 0.00 in0.0 mm 0.00 in0.0 mm
05:05 AM 31.8°F-0.1°C 26.6°F-3.0°C 85% 2.3 mph NE3.7 kmh NE 3.4 mph5.5 kmh 30.42 in1030.1 mb 0.00 in0.0 mm 0.00 in0.0 mm 0.00 in0.0 mm
05:10 AM 31.6°F-0.2°C 26.6°F-3.0°C 85% 1.6 mph NE2.6 kmh NE 3.4 mph5.5 kmh 30.42 in1030.1 mb 0.00 in0.0 mm 0.00 in0.0 mm 0.00 in0.0 mm
05:15 AM 31.5°F-0.3°C 26.6°F-3.0°C 85% 0.9 mph NE1.4 kmh NE 2.2 mph3.5 kmh 30.45 in1031.2 mb 0.00 in0.0 mm 0.00 in0.0 mm 0.00 in0.0 mm
05:20 AM 31.3°F-0.4°C 26.6°F-3.0°C 85% 0.5 mph NE0.8 kmh NE 1.3 mph2.1 kmh 30.45 in1031.2 mb 0.00 in0.0 mm 0.00 in0.0 mm 0.00 in0.0 mm
05:25 AM 31.1°F-0.5°C 26.6°F-3.0°C 85% 0.9 mph N1.4 kmh N 2.0 mph3.2 kmh 30.45 in1031.2 mb 0.00 in0.0 mm 0.00 in0.0 mm 0.00 in0.0 mm
05:30 AM 31.1°F-0.5°C 26.6°F-3.0°C 85% 1.2 mph N1.9 kmh N 2.2 mph3.5 kmh 30.45 in1031.2 mb 0.00 in0.0 mm 0.00 in0.0 mm 0.00 in0.0 mm
05:35 AM 31.6°F-0.2°C 26.6°F-3.0°C 85% 2.2 mph NNE3.5 kmh NNE 7.2 mph11.6 kmh 30.45 in1031.2 mb 0.00 in0.0 mm 0.00 in0.0 mm 0.00 in0.0 mm
05:40 AM 32.5°F0.3°C 28.4°F-2.0°C 86% 3.3 mph NE5.3 kmh NE 7.2 mph11.6 kmh 30.45 in1031.2 mb 0.00 in0.0 mm 0.00 in0.0 mm 0.00 in0.0 mm
05:45 AM 33.1°F0.6°C 30.2°F-1.0°C 86% 3.8 mph NE6.1 kmh NE 7.2 mph11.6 kmh 30.45 in1031.2 mb 0.00 in0.0 mm 0.00 in0.0 mm 0.00 in0.0 mm
05:50 AM 32.7°F0.4°C 28.4°F-2.0°C 86% 2.8 mph NE4.5 kmh NE 4.3 mph6.9 kmh 30.45 in1031.2 mb 0.00 in0.0 mm 0.00 in0.0 mm 0.00 in0.0 mm
05:55 AM 32.7°F0.4°C 28.4°F-2.0°C 86% 1.8 mph NE2.9 kmh NE 3.4 mph5.5 kmh 30.45 in1031.2 mb 0.00 in0.0 mm 0.00 in0.0 mm 0.00 in0.0 mm
06:00 AM 32.7°F0.4°C 28.4°F-2.0°C 86% 1.3 mph NE2.1 kmh NE 2.7 mph4.3 kmh 30.45 in1031.2 mb 0.00 in0.0 mm 0.00 in0.0 mm 0.00 in0.0 mm
06:05 AM 32.5°F0.3°C 28.4°F-2.0°C 85% 1.1 mph NE1.8 kmh NE 2.5 mph4.0 kmh 30.45 in1031.2 mb 0.00 in0.0 mm 0.00 in0.0 mm 0.00 in0.0 mm
06:10 AM 32.4°F0.2°C 26.6°F-3.0°C 85% 1.3 mph NNE2.1 kmh NNE 2.5 mph4.0 kmh 30.45 in1031.2 mb 0.00 in0.0 mm 0.00 in0.0 mm 0.00 in0.0 mm
06:15 AM 32.4°F0.2°C 26.6°F-3.0°C 85% 1.7 mph NNE2.7 kmh NNE 3.1 mph5.0 kmh 30.48 in1032.2 mb 0.00 in0.0 mm 0.00 in0.0 mm 0.00 in0.0 mm
06:20 AM 32.4°F0.2°C 26.6°F-3.0°C 85% 1.6 mph NNE2.6 kmh NNE 3.1 mph5.0 kmh 30.48 in1032.2 mb 0.00 in0.0 mm 0.00 in0.0 mm 0.00 in0.0 mm
06:25 AM 32.4°F0.2°C 26.6°F-3.0°C 85% 1.3 mph NNE2.1 kmh NNE 2.0 mph3.2 kmh 30.48 in1032.2 mb 0.00 in0.0 mm 0.00 in0.0 mm 0.00 in0.0 mm
06:30 AM 32.4°F0.2°C 26.6°F-3.0°C 85% 1.8 mph NE2.9 kmh NE 2.9 mph4.7 kmh 30.48 in1032.2 mb 0.00 in0.0 mm 0.00 in0.0 mm 0.00 in0.0 mm
06:35 AM 32.5°F0.3°C 28.4°F-2.0°C 85% 2.5 mph NE4.0 kmh NE 4.3 mph6.9 kmh 30.48 in1032.2 mb 0.00 in0.0 mm 0.00 in0.0 mm 0.00 in0.0 mm
06:40 AM 32.4°F0.2°C 26.6°F-3.0°C 85% 2.8 mph NE4.5 kmh NE 4.3 mph6.9 kmh 30.48 in1032.2 mb 0.00 in0.0 mm 0.00 in0.0 mm 0.00 in0.0 mm
06:45 AM 32.4°F0.2°C 26.6°F-3.0°C 85% 2.6 mph NE4.2 kmh NE 3.8 mph6.1 kmh 30.48 in1032.2 mb 0.00 in0.0 mm 0.00 in0.0 mm 0.00 in0.0 mm
06:50 AM 32.5°F0.3°C 28.4°F-2.0°C 85% 2.2 mph NE3.5 kmh NE 3.1 mph5.0 kmh 30.48 in1032.2 mb 0.00 in0.0 mm 0.00 in0.0 mm 0.00 in0.0 mm
06:55 AM 32.7°F0.4°C 28.4°F-2.0°C 85% 2.3 mph NNE3.7 kmh NNE 4.3 mph6.9 kmh 30.48 in1032.2 mb 0.00 in0.0 mm 0.00 in0.0 mm 0.00 in0.0 mm
07:00 AM 32.4°F0.2°C 26.6°F-3.0°C 85% 2.7 mph NE4.3 kmh NE 4.3 mph6.9 kmh 30.48 in1032.2 mb 0.00 in0.0 mm 0.00 in0.0 mm 0.00 in0.0 mm
07:05 AM 32.4°F0.2°C 26.6°F-3.0°C 85% 2.8 mph NE4.5 kmh NE 4.3 mph6.9 kmh 30.48 in1032.2 mb 0.00 in0.0 mm 0.00 in0.0 mm 0.00 in0.0 mm
07:10 AM 32.4°F0.2°C 26.6°F-3.0°C 85% 3.0 mph NE4.8 kmh NE 3.8 mph6.1 kmh 30.48 in1032.2 mb 0.00 in0.0 mm 0.00 in0.0 mm 0.00 in0.0 mm
07:15 AM 32.5°F0.3°C 28.4°F-2.0°C 86% 3.1 mph NE5.0 kmh NE 3.8 mph6.1 kmh 30.48 in1032.2 mb 0.00 in0.0 mm 0.00 in0.0 mm 0.00 in0.0 mm
07:20 AM 32.4°F0.2°C 26.6°F-3.0°C 86% 3.0 mph NE4.8 kmh NE 4.0 mph6.4 kmh 30.48 in1032.2 mb 0.00 in0.0 mm 0.00 in0.0 mm 0.00 in0.0 mm
07:25 AM 32.4°F0.2°C 26.6°F-3.0°C 86% 2.8 mph NE4.5 kmh NE 4.0 mph6.4 kmh 30.48 in1032.2 mb 0.00 in0.0 mm 0.00 in0.0 mm 0.00 in0.0 mm
07:30 AM 32.4°F0.2°C 26.6°F-3.0°C 86% 2.7 mph NE4.3 kmh NE 3.6 mph5.8 kmh 30.51 in1033.2 mb 0.00 in0.0 mm 0.00 in0.0 mm 0.00 in0.0 mm
07:35 AM 32.4°F0.2°C 26.6°F-3.0°C 86% 2.7 mph NE4.3 kmh NE 4.3 mph6.9 kmh 30.51 in1033.2 mb 0.00 in0.0 mm 0.00 in0.0 mm 0.00 in0.0 mm
07:40 AM 32.2°F0.1°C 26.6°F-3.0°C 86% 1.8 mph NE2.9 kmh NE 4.3 mph6.9 kmh 30.51 in1033.2 mb 0.00 in0.0 mm 0.00 in0.0 mm 0.00 in0.0 mm
07:45 AM 32.2°F0.1°C 26.6°F-3.0°C 85% 1.3 mph NNE2.1 kmh NNE 3.4 mph5.5 kmh 30.51 in1033.2 mb 0.00 in0.0 mm 0.00 in0.0 mm 0.00 in0.0 mm
07:50 AM 32.2°F0.1°C 26.6°F-3.0°C 85% 1.5 mph NNE2.4 kmh NNE 2.5 mph4.0 kmh 30.51 in1033.2 mb 0.00 in0.0 mm 0.00 in0.0 mm 0.00 in0.0 mm
07:55 AM 32.2°F0.1°C 26.6°F-3.0°C 85% 1.5 mph NE2.4 kmh NE 2.5 mph4.0 kmh 30.51 in1033.2 mb 0.00 in0.0 mm 0.00 in0.0 mm 0.00 in0.0 mm
08:00 AM 32.4°F0.2°C 26.6°F-3.0°C 86% 2.0 mph ENE3.2 kmh ENE 3.1 mph5.0 kmh 30.51 in1033.2 mb 0.00 in0.0 mm 0.00 in0.0 mm 0.00 in0.0 mm
08:05 AM 32.5°F0.3°C 28.4°F-2.0°C 86% 2.5 mph ENE4.0 kmh ENE 3.6 mph5.8 kmh 30.51 in1033.2 mb 0.00 in0.0 mm 0.00 in0.0 mm 0.00 in0.0 mm
08:10 AM 32.4°F0.2°C 26.6°F-3.0°C 86% 2.3 mph ENE3.7 kmh ENE 3.6 mph5.8 kmh 30.51 in1033.2 mb 0.00 in0.0 mm 0.00 in0.0 mm 0.00 in0.0 mm
08:15 AM 32.4°F0.2°C 26.6°F-3.0°C 86% 1.7 mph E2.7 kmh E 3.6 mph5.8 kmh 30.51 in1033.2 mb 0.00 in0.0 mm 0.00 in0.0 mm 0.00 in0.0 mm
08:20 AM 32.2°F0.1°C 26.6°F-3.0°C 86% 1.2 mph E1.9 kmh E 2.2 mph3.5 kmh 30.51 in1033.2 mb 0.00 in0.0 mm 0.00 in0.0 mm 0.00 in0.0 mm
08:25 AM 31.8°F-0.1°C 26.6°F-3.0°C 86% 0.6 mph ENE1.0 kmh ENE 1.6 mph2.6 kmh 30.51 in1033.2 mb 0.00 in0.0 mm 0.00 in0.0 mm 0.00 in0.0 mm
08:30 AM 31.3°F-0.4°C 26.6°F-3.0°C 85% 0.2 mph NNE0.3 kmh NNE 0.9 mph1.4 kmh 30.51 in1033.2 mb 0.00 in0.0 mm 0.00 in0.0 mm 0.00 in0.0 mm
08:35 AM 31.1°F-0.5°C 26.6°F-3.0°C 85% 0.1 mph N0.2 kmh N 0.9 mph1.4 kmh 30.51 in1033.2 mb 0.00 in0.0 mm 0.00 in0.0 mm 0.00 in0.0 mm
08:40 AM 30.9°F-0.6°C 24.8°F-4.0°C 85% 0.3 mph N0.5 kmh N 0.9 mph1.4 kmh 30.51 in1033.2 mb 0.00 in0.0 mm 0.00 in0.0 mm 0.00 in0.0 mm
08:45 AM 30.9°F-0.6°C 24.8°F-4.0°C 85% 0.5 mph N0.8 kmh N 1.3 mph2.1 kmh 30.51 in1033.2 mb 0.00 in0.0 mm 0.00 in0.0 mm 0.00 in0.0 mm
08:50 AM 30.9°F-0.6°C 24.8°F-4.0°C 85% 0.8 mph N1.3 kmh N 2.0 mph3.2 kmh 30.51 in1033.2 mb 0.00 in0.0 mm 0.00 in0.0 mm 0.00 in0.0 mm
08:55 AM 31.3°F-0.4°C 26.6°F-3.0°C 85% 1.2 mph N1.9 kmh N 2.5 mph4.0 kmh 30.51 in1033.2 mb 0.00 in0.0 mm 0.00 in0.0 mm 0.00 in0.0 mm
09:00 AM 31.8°F-0.1°C 26.6°F-3.0°C 85% 1.3 mph N2.1 kmh N 2.5 mph4.0 kmh 30.51 in1033.2 mb 0.00 in0.0 mm 0.00 in0.0 mm 0.00 in0.0 mm
09:05 AM 32.4°F0.2°C 26.6°F-3.0°C 86% 1.1 mph N1.8 kmh N 1.3 mph2.1 kmh 30.51 in1033.2 mb 0.00 in0.0 mm 0.00 in0.0 mm 0.00 in0.0 mm
09:10 AM 32.5°F0.3°C 28.4°F-2.0°C 86% 1.1 mph NNE1.8 kmh NNE 2.5 mph4.0 kmh 30.51 in1033.2 mb 0.00 in0.0 mm 0.00 in0.0 mm 0.00 in0.0 mm
09:15 AM 32.7°F0.4°C 28.4°F-2.0°C 86% 1.2 mph NNE1.9 kmh NNE 2.5 mph4.0 kmh 30.54 in1034.2 mb 0.00 in0.0 mm 0.00 in0.0 mm 0.00 in0.0 mm
09:20 AM 33.1°F0.6°C 30.2°F-1.0°C 86% 1.3 mph NE2.1 kmh NE 2.7 mph4.3 kmh 30.54 in1034.2 mb 0.00 in0.0 mm 0.00 in0.0 mm 0.00 in0.0 mm
09:25 AM 33.3°F0.7°C 30.2°F-1.0°C 86% 1.5 mph NE2.4 kmh NE 2.9 mph4.7 kmh 30.54 in1034.2 mb 0.00 in0.0 mm 0.00 in0.0 mm 0.00 in0.0 mm
09:30 AM 33.4°F0.8°C 30.2°F-1.0°C 86% 1.6 mph NE2.6 kmh NE 2.9 mph4.7 kmh 30.54 in1034.2 mb 0.00 in0.0 mm 0.00 in0.0 mm 0.00 in0.0 mm
09:35 AM 33.4°F0.8°C 30.2°F-1.0°C 86% 1.2 mph NE1.9 kmh NE 2.2 mph3.5 kmh 30.54 in1034.2 mb 0.00 in0.0 mm 0.00 in0.0 mm 0.00 in0.0 mm
09:40 AM 33.4°F0.8°C 30.2°F-1.0°C 86% 0.9 mph NNE1.4 kmh NNE 2.2 mph3.5 kmh 30.54 in1034.2 mb 0.00 in0.0 mm 0.00 in0.0 mm 0.00 in0.0 mm
09:45 AM 33.6°F0.9°C 30.2°F-1.0°C 86% 1.0 mph NE1.6 kmh NE 2.2 mph3.5 kmh 30.54 in1034.2 mb 0.00 in0.0 mm 0.00 in0.0 mm 0.00 in0.0 mm
09:50 AM 33.6°F0.9°C 30.2°F-1.0°C 86% 1.0 mph NE1.6 kmh NE 2.2 mph3.5 kmh 30.54 in1034.2 mb 0.00 in0.0 mm 0.00 in0.0 mm 0.00 in0.0 mm
09:55 AM 33.6°F0.9°C 30.2°F-1.0°C 86% 0.9 mph NNE1.4 kmh NNE 1.6 mph2.6 kmh 30.54 in1034.2 mb 0.00 in0.0 mm 0.00 in0.0 mm 0.00 in0.0 mm
10:00 AM 33.6°F0.9°C 30.2°F-1.0°C 87% 1.1 mph NE1.8 kmh NE 2.5 mph4.0 kmh 30.54 in1034.2 mb 0.00 in0.0 mm 0.00 in0.0 mm 0.00 in0.0 mm
10:05 AM 33.6°F0.9°C 30.2°F-1.0°C 87% 1.4 mph NE2.3 kmh NE 2.9 mph4.7 kmh 30.54 in1034.2 mb 0.00 in0.0 mm 0.00 in0.0 mm 0.00 in0.0 mm
10:10 AM 33.6°F0.9°C 30.2°F-1.0°C 87% 1.5 mph NE2.4 kmh NE 2.9 mph4.7 kmh 30.54 in1034.2 mb 0.00 in0.0 mm 0.00 in0.0 mm 0.00 in0.0 mm
10:15 AM 34.0°F1.1°C 30.2°F-1.0°C 87% 1.0 mph NE1.6 kmh NE 2.5 mph4.0 kmh 30.54 in1034.2 mb 0.00 in0.0 mm 0.00 in0.0 mm 0.00 in0.0 mm
10:20 AM 34.0°F1.1°C 30.2°F-1.0°C 87% 1.0 mph NE1.6 kmh NE 2.0 mph3.2 kmh 30.54 in1034.2 mb 0.00 in0.0 mm 0.00 in0.0 mm 0.00 in0.0 mm
10:25 AM 34.0°F1.1°C 30.2°F-1.0°C 87% 1.3 mph NE2.1 kmh NE 2.0 mph3.2 kmh 30.54 in1034.2 mb 0.00 in0.0 mm 0.00 in0.0 mm 0.00 in0.0 mm
10:30 AM 34.2°F1.2°C 30.2°F-1.0°C 87% 1.4 mph NE2.3 kmh NE 2.9 mph4.7 kmh 30.57 in1035.2 mb 0.00 in0.0 mm 0.00 in0.0 mm 0.00 in0.0 mm
10:35 AM 34.3°F1.3°C 30.2°F-1.0°C 87% 1.2 mph NE1.9 kmh NE 2.9 mph4.7 kmh 30.57 in1035.2 mb 0.00 in0.0 mm 0.00 in0.0 mm 0.00 in0.0 mm
10:40 AM 34.3°F1.3°C 30.2°F-1.0°C 87% 1.3 mph NE2.1 kmh NE 2.5 mph4.0 kmh 30.57 in1035.2 mb 0.00 in0.0 mm 0.00 in0.0 mm 0.00 in0.0 mm
10:45 AM 34.5°F1.4°C 32.0°F0.0°C 87% 1.5 mph ENE2.4 kmh ENE 2.5 mph4.0 kmh 30.54 in1034.2 mb 0.00 in0.0 mm 0.00 in0.0 mm 0.00 in0.0 mm
10:50 AM 34.9°F1.6°C 32.0°F0.0°C 87% 1.4 mph ENE2.3 kmh ENE 2.0 mph3.2 kmh 30.54 in1034.2 mb 0.00 in0.0 mm 0.00 in0.0 mm 0.00 in0.0 mm
10:55 AM 35.1°F1.7°C 32.0°F0.0°C 87% 1.6 mph E2.6 kmh E 3.1 mph5.0 kmh 30.54 in1034.2 mb 0.00 in0.0 mm 0.00 in0.0 mm 0.00 in0.0 mm
11:00 AM 35.4°F1.9°C 32.0°F0.0°C 87% 2.0 mph E3.2 kmh E 3.1 mph5.0 kmh 30.54 in1034.2 mb 0.00 in0.0 mm 0.00 in0.0 mm 0.00 in0.0 mm
11:05 AM 35.4°F1.9°C 32.0°F0.0°C 87% 1.7 mph E2.7 kmh E 2.9 mph4.7 kmh 30.54 in1034.2 mb 0.00 in0.0 mm 0.00 in0.0 mm 0.00 in0.0 mm
11:10 AM 35.4°F1.9°C 32.0°F0.0°C 87% 1.3 mph ENE2.1 kmh ENE 2.9 mph4.7 kmh 30.54 in1034.2 mb 0.00 in0.0 mm 0.00 in0.0 mm 0.00 in0.0 mm
11:15 AM 35.6°F2.0°C 32.0°F0.0°C 87% 1.2 mph ENE1.9 kmh ENE 2.0 mph3.2 kmh 30.54 in1034.2 mb 0.00 in0.0 mm 0.00 in0.0 mm 0.00 in0.0 mm
11:20 AM 36.1°F2.3°C 33.8°F1.0°C 87% 1.3 mph ENE2.1 kmh ENE 2.5 mph4.0 kmh 30.54 in1034.2 mb 0.00 in0.0 mm 0.00 in0.0 mm 0.00 in0.0 mm
11:25 AM 36.0°F2.2°C 33.8°F1.0°C 87% 0.9 mph NE1.4 kmh NE 2.5 mph4.0 kmh 30.54 in1034.2 mb 0.00 in0.0 mm 0.00 in0.0 mm 0.00 in0.0 mm
11:30 AM 35.8°F2.1°C 32.0°F0.0°C 87% 0.2 mph E0.3 kmh E 1.3 mph2.1 kmh 30.54 in1034.2 mb 0.00 in0.0 mm 0.00 in0.0 mm 0.00 in0.0 mm
11:35 AM 36.1°F2.3°C 33.8°F1.0°C 87% 1.1 mph E1.8 kmh E 3.1 mph5.0 kmh 30.54 in1034.2 mb 0.00 in0.0 mm 0.00 in0.0 mm 0.00 in0.0 mm
11:40 AM 36.3°F2.4°C 33.8°F1.0°C 87% 2.0 mph E3.2 kmh E 3.6 mph5.8 kmh 30.54 in1034.2 mb 0.00 in0.0 mm 0.00 in0.0 mm 0.00 in0.0 mm
11:45 AM 36.9°F2.7°C 33.8°F1.0°C 86% 1.6 mph E2.6 kmh E 3.6 mph5.8 kmh 30.54 in1034.2 mb 0.00 in0.0 mm 0.00 in0.0 mm 0.00 in0.0 mm
11:50 AM 37.6°F3.1°C 33.8°F1.0°C 86% 1.2 mph E1.9 kmh E 3.6 mph5.8 kmh 30.54 in1034.2 mb 0.00 in0.0 mm 0.00 in0.0 mm 0.00 in0.0 mm
11:55 AM 39.0°F3.9°C 35.6°F2.0°C 86% 0.5 mph E0.8 kmh E 2.7 mph4.3 kmh 30.54 in1034.2 mb 0.00 in0.0 mm 0.00 in0.0 mm 0.00 in0.0 mm
12:00 PM 40.5°F4.7°C 37.4°F3.0°C 85% 0.4 mph E0.6 kmh E 2.9 mph4.7 kmh 30.54 in1034.2 mb 0.00 in0.0 mm 0.00 in0.0 mm 0.00 in0.0 mm
12:05 PM 41.5°F5.3°C 37.4°F3.0°C 84% 1.6 mph E2.6 kmh E 4.7 mph7.6 kmh 30.54 in1034.2 mb 0.00 in0.0 mm 0.00 in0.0 mm 0.00 in0.0 mm
12:10 PM 42.1°F5.6°C 37.4°F3.0°C 84% 2.9 mph E4.7 kmh E 4.9 mph7.9 kmh 30.54 in1034.2 mb 0.00 in0.0 mm 0.00 in0.0 mm 0.00 in0.0 mm
12:15 PM 42.4°F5.8°C 37.4°F3.0°C 82% 2.5 mph E4.0 kmh E 4.9 mph7.9 kmh 30.54 in1034.2 mb 0.00 in0.0 mm 0.00 in0.0 mm 0.00 in0.0 mm
12:20 PM 42.8°F6.0°C 37.4°F3.0°C 82% 3.2 mph E5.1 kmh E 6.5 mph10.5 kmh 30.54 in1034.2 mb 0.00 in0.0 mm 0.00 in0.0 mm 0.00 in0.0 mm
12:25 PM 43.3°F6.3°C 37.4°F3.0°C 81% 4.3 mph E6.9 kmh E 6.5 mph10.5 kmh 30.54 in1034.2 mb 0.00 in0.0 mm 0.00 in0.0 mm 0.00 in0.0 mm
12:30 PM 43.3°F6.3°C 37.4°F3.0°C 80% 5.1 mph E8.2 kmh E 8.5 mph13.7 kmh 30.54 in1034.2 mb 0.00 in0.0 mm 0.00 in0.0 mm 0.00 in0.0 mm
12:35 PM 43.5°F6.4°C 37.4°F3.0°C 80% 5.5 mph E8.9 kmh E 8.5 mph13.7 kmh 30.54 in1034.2 mb 0.00 in0.0 mm 0.00 in0.0 mm 0.00 in0.0 mm
12:40 PM 43.5°F6.4°C 37.4°F3.0°C 79% 4.7 mph E7.6 kmh E 7.2 mph11.6 kmh 30.54 in1034.2 mb 0.00 in0.0 mm 0.00 in0.0 mm 0.00 in0.0 mm
12:45 PM 43.7°F6.5°C 37.4°F3.0°C 79% 4.1 mph E6.6 kmh E 7.2 mph11.6 kmh 30.54 in1034.2 mb 0.00 in0.0 mm 0.00 in0.0 mm 0.00 in0.0 mm
12:50 PM 44.1°F6.7°C 37.4°F3.0°C 79% 4.0 mph E6.4 kmh E 5.6 mph9.0 kmh 30.54 in1034.2 mb 0.00 in0.0 mm 0.00 in0.0 mm 0.00 in0.0 mm
12:55 PM 43.9°F6.6°C 37.4°F3.0°C 79% 4.1 mph E6.6 kmh E 8.1 mph13.0 kmh 30.54 in1034.2 mb 0.00 in0.0 mm 0.00 in0.0 mm 0.00 in0.0 mm
01:00 PM 43.7°F6.5°C 37.4°F3.0°C 78% 4.1 mph E6.6 kmh E 8.1 mph13.0 kmh 30.54 in1034.2 mb 0.00 in0.0 mm 0.00 in0.0 mm 0.00 in0.0 mm
01:05 PM 43.3°F6.3°C 37.4°F3.0°C 78% 4.5 mph E7.2 kmh E 7.4 mph11.9 kmh 30.54 in1034.2 mb 0.00 in0.0 mm 0.00 in0.0 mm 0.00 in0.0 mm
01:10 PM 43.3°F6.3°C 37.4°F3.0°C 78% 4.7 mph E7.6 kmh E 6.5 mph10.5 kmh 30.54 in1034.2 mb 0.00 in0.0 mm 0.00 in0.0 mm 0.00 in0.0 mm
01:15 PM 43.3°F6.3°C 37.4°F3.0°C 78% 4.3 mph E6.9 kmh E 6.0 mph9.7 kmh 30.54 in1034.2 mb 0.00 in0.0 mm 0.00 in0.0 mm 0.00 in0.0 mm
01:20 PM 43.0°F6.1°C 37.4°F3.0°C 78% 3.9 mph E6.3 kmh E 5.6 mph9.0 kmh 30.54 in1034.2 mb 0.00 in0.0 mm 0.00 in0.0 mm 0.00 in0.0 mm
01:25 PM 42.6°F5.9°C 35.6°F2.0°C 78% 4.2 mph E6.8 kmh E 6.0 mph9.7 kmh 30.54 in1034.2 mb 0.00 in0.0 mm 0.00 in0.0 mm 0.00 in0.0 mm
01:30 PM 41.9°F5.5°C 35.6°F2.0°C 77% 4.5 mph E7.2 kmh E 6.0 mph9.7 kmh 30.54 in1034.2 mb 0.00 in0.0 mm 0.00 in0.0 mm 0.00 in0.0 mm
01:35 PM 41.4°F5.2°C 35.6°F2.0°C 77% 4.5 mph E7.2 kmh E 6.0 mph9.7 kmh 30.54 in1034.2 mb 0.00 in0.0 mm 0.00 in0.0 mm 0.00 in0.0 mm
01:40 PM 41.0°F5.0°C 33.8°F1.0°C 78% 4.0 mph E6.4 kmh E 5.8 mph9.3 kmh 30.54 in1034.2 mb 0.00 in0.0 mm 0.00 in0.0 mm 0.00 in0.0 mm
01:45 PM 40.8°F4.9°C 33.8°F1.0°C 78% 3.8 mph E6.1 kmh E 6.0 mph9.7 kmh 30.54 in1034.2 mb 0.00 in0.0 mm 0.00 in0.0 mm 0.00 in0.0 mm
01:50 PM 40.6°F4.8°C 33.8°F1.0°C 78% 4.0 mph ESE6.4 kmh ESE 6.0 mph9.7 kmh 30.54 in1034.2 mb 0.00 in0.0 mm 0.00 in0.0 mm 0.00 in0.0 mm
01:55 PM 40.5°F4.7°C 33.8°F1.0°C 78% 5.0 mph E8.0 kmh E 6.7 mph10.8 kmh 30.54 in1034.2 mb 0.00 in0.0 mm 0.00 in0.0 mm 0.00 in0.0 mm
02:00 PM 40.3°F4.6°C 33.8°F1.0°C 78% 5.2 mph E8.4 kmh E 6.7 mph10.8 kmh 30.54 in1034.2 mb 0.00 in0.0 mm 0.00 in0.0 mm 0.00 in0.0 mm
02:05 PM 40.3°F4.6°C 33.8°F1.0°C 78% 4.4 mph E7.1 kmh E 7.2 mph11.6 kmh 30.54 in1034.2 mb 0.00 in0.0 mm 0.00 in0.0 mm 0.00 in0.0 mm
02:10 PM 40.3°F4.6°C 33.8°F1.0°C 78% 5.1 mph E8.2 kmh E 9.2 mph14.8 kmh 30.54 in1034.2 mb 0.00 in0.0 mm 0.00 in0.0 mm 0.00 in0.0 mm
02:15 PM 40.1°F4.5°C 33.8°F1.0°C 77% 5.8 mph E9.3 kmh E 9.2 mph14.8 kmh 30.54 in1034.2 mb 0.00 in0.0 mm 0.00 in0.0 mm 0.00 in0.0 mm
02:20 PM 39.9°F4.4°C 33.8°F1.0°C 77% 5.6 mph E9.0 kmh E 7.6 mph12.2 kmh 30.54 in1034.2 mb 0.00 in0.0 mm 0.00 in0.0 mm 0.00 in0.0 mm
02:25 PM 39.6°F4.2°C 33.8°F1.0°C 77% 4.9 mph E7.9 kmh E 7.6 mph12.2 kmh 30.54 in1034.2 mb 0.00 in0.0 mm 0.00 in0.0 mm 0.00 in0.0 mm
02:30 PM 39.4°F4.1°C 33.8°F1.0°C 77% 3.6 mph E5.8 kmh E 6.3 mph10.1 kmh 30.54 in1034.2 mb 0.00 in0.0 mm 0.00 in0.0 mm 0.00 in0.0 mm
02:35 PM 39.0°F3.9°C 32.0°F0.0°C 77% 3.7 mph E6.0 kmh E 5.8 mph9.3 kmh 30.54 in1034.2 mb 0.00 in0.0 mm 0.00 in0.0 mm 0.00 in0.0 mm
02:40 PM 38.8°F3.8°C 32.0°F0.0°C 77% 4.4 mph E7.1 kmh E 6.3 mph10.1 kmh 30.54 in1034.2 mb 0.00 in0.0 mm 0.00 in0.0 mm 0.00 in0.0 mm
02:45 PM 38.7°F3.7°C 32.0°F0.0°C 77% 4.9 mph E7.9 kmh E 6.5 mph10.5 kmh 30.54 in1034.2 mb 0.00 in0.0 mm 0.00 in0.0 mm 0.00 in0.0 mm
02:50 PM 38.5°F3.6°C 32.0°F0.0°C 77% 4.8 mph E7.7 kmh E 6.5 mph10.5 kmh 30.54 in1034.2 mb 0.00 in0.0 mm 0.00 in0.0 mm 0.00 in0.0 mm
02:55 PM 38.3°F3.5°C 32.0°F0.0°C 77% 4.4 mph E7.1 kmh E 5.8 mph9.3 kmh 30.54 in1034.2 mb 0.00 in0.0 mm 0.00 in0.0 mm 0.00 in0.0 mm
03:00 PM 37.9°F3.3°C 32.0°F0.0°C 77% 4.8 mph E7.7 kmh E 6.0 mph9.7 kmh 30.54 in1034.2 mb 0.00 in0.0 mm 0.00 in0.0 mm 0.00 in0.0 mm
03:05 PM 37.6°F3.1°C 32.0°F0.0°C 78% 3.8 mph E6.1 kmh E 6.0 mph9.7 kmh 30.54 in1034.2 mb 0.00 in0.0 mm 0.00 in0.0 mm 0.00 in0.0 mm
03:10 PM 37.4°F3.0°C 32.0°F0.0°C 78% 2.9 mph E4.7 kmh E 4.0 mph6.4 kmh 30.54 in1034.2 mb 0.00 in0.0 mm 0.00 in0.0 mm 0.00 in0.0 mm
03:15 PM 37.2°F2.9°C 30.2°F-1.0°C 78% 3.2 mph E5.1 kmh E 4.0 mph6.4 kmh 30.54 in1034.2 mb 0.00 in0.0 mm 0.00 in0.0 mm 0.00 in0.0 mm
03:20 PM 36.9°F2.7°C 30.2°F-1.0°C 78% 3.2 mph E5.1 kmh E 4.0 mph6.4 kmh 30.54 in1034.2 mb 0.00 in0.0 mm 0.00 in0.0 mm 0.00 in0.0 mm
03:25 PM 36.7°F2.6°C 30.2°F-1.0°C 78% 3.2 mph E5.1 kmh E 4.5 mph7.2 kmh 30.54 in1034.2 mb 0.00 in0.0 mm 0.00 in0.0 mm 0.00 in0.0 mm
03:30 PM 36.3°F2.4°C 30.2°F-1.0°C 78% 2.7 mph E4.3 kmh E 4.5 mph7.2 kmh 30.54 in1034.2 mb 0.00 in0.0 mm 0.00 in0.0 mm 0.00 in0.0 mm
03:35 PM 36.1°F2.3°C 30.2°F-1.0°C 78% 2.6 mph ENE4.2 kmh ENE 3.8 mph6.1 kmh 30.54 in1034.2 mb 0.00 in0.0 mm 0.00 in0.0 mm 0.00 in0.0 mm
03:40 PM 36.1°F2.3°C 30.2°F-1.0°C 78% 2.7 mph NE4.3 kmh NE 3.8 mph6.1 kmh 30.54 in1034.2 mb 0.00 in0.0 mm 0.00 in0.0 mm 0.00 in0.0 mm
03:45 PM 35.8°F2.1°C 30.2°F-1.0°C 78% 1.8 mph NE2.9 kmh NE 3.4 mph5.5 kmh 30.54 in1034.2 mb 0.00 in0.0 mm 0.00 in0.0 mm 0.00 in0.0 mm
03:50 PM 35.8°F2.1°C 30.2°F-1.0°C 78% 1.3 mph NE2.1 kmh NE 3.4 mph5.5 kmh 30.54 in1034.2 mb 0.00 in0.0 mm 0.00 in0.0 mm 0.00 in0.0 mm
03:55 PM 35.4°F1.9°C 28.4°F-2.0°C 78% 1.4 mph NE2.3 kmh NE 2.2 mph3.5 kmh 30.54 in1034.2 mb 0.00 in0.0 mm 0.00 in0.0 mm 0.00 in0.0 mm
04:00 PM 35.4°F1.9°C 30.2°F-1.0°C 79% 1.9 mph NE3.1 kmh NE 2.9 mph4.7 kmh 30.54 in1034.2 mb 0.00 in0.0 mm 0.00 in0.0 mm 0.00 in0.0 mm
04:05 PM 35.1°F1.7°C 28.4°F-2.0°C 78% 2.4 mph NE3.9 kmh NE 2.9 mph4.7 kmh 30.54 in1034.2 mb 0.00 in0.0 mm 0.00 in0.0 mm 0.00 in0.0 mm
04:10 PM 34.9°F1.6°C 28.4°F-2.0°C 78% 2.3 mph NE3.7 kmh NE 2.9 mph4.7 kmh 30.54 in1034.2 mb 0.00 in0.0 mm 0.00 in0.0 mm 0.00 in0.0 mm
04:15 PM 34.7°F1.5°C 28.4°F-2.0°C 78% 1.9 mph NE3.1 kmh NE 2.5 mph4.0 kmh 30.54 in1034.2 mb 0.00 in0.0 mm 0.00 in0.0 mm 0.00 in0.0 mm
04:20 PM 34.3°F1.3°C 28.4°F-2.0°C 79% 2.0 mph NE3.2 kmh NE 2.7 mph4.3 kmh 30.54 in1034.2 mb 0.00 in0.0 mm 0.00 in0.0 mm 0.00 in0.0 mm
04:25 PM 34.2°F1.2°C 28.4°F-2.0°C 79% 1.7 mph NE2.7 kmh NE 2.7 mph4.3 kmh 30.54 in1034.2 mb 0.00 in0.0 mm 0.00 in0.0 mm 0.00 in0.0 mm
04:30 PM 33.6°F0.9°C 28.4°F-2.0°C 79% 1.3 mph ENE2.1 kmh ENE 2.5 mph4.0 kmh 30.54 in1034.2 mb 0.00 in0.0 mm 0.00 in0.0 mm 0.00 in0.0 mm
04:35 PM 33.1°F0.6°C 26.6°F-3.0°C 79% 1.4 mph E2.3 kmh E 2.2 mph3.5 kmh 30.54 in1034.2 mb 0.00 in0.0 mm 0.00 in0.0 mm 0.00 in0.0 mm
04:40 PM 32.9°F0.5°C 26.6°F-3.0°C 79% 1.4 mph E2.3 kmh E 2.5 mph4.0 kmh 30.54 in1034.2 mb 0.00 in0.0 mm 0.00 in0.0 mm 0.00 in0.0 mm
04:45 PM 32.7°F0.4°C 26.6°F-3.0°C 79% 1.9 mph ENE3.1 kmh ENE 3.1 mph5.0 kmh 30.54 in1034.2 mb 0.00 in0.0 mm 0.00 in0.0 mm 0.00 in0.0 mm
04:50 PM 32.7°F0.4°C 26.6°F-3.0°C 79% 2.0 mph NE3.2 kmh NE 3.1 mph5.0 kmh 30.54 in1034.2 mb 0.00 in0.0 mm 0.00 in0.0 mm 0.00 in0.0 mm
04:55 PM 32.5°F0.3°C 26.6°F-3.0°C 79% 1.6 mph NE2.6 kmh NE 3.1 mph5.0 kmh 30.54 in1034.2 mb 0.00 in0.0 mm 0.00 in0.0 mm 0.00 in0.0 mm
05:00 PM 32.4°F0.2°C 24.8°F-4.0°C 79% 1.3 mph NE2.1 kmh NE 2.2 mph3.5 kmh 30.54 in1034.2 mb 0.00 in0.0 mm 0.00 in0.0 mm 0.00 in0.0 mm
05:05 PM 32.4°F0.2°C 24.8°F-4.0°C 79% 1.4 mph NE2.3 kmh NE 2.2 mph3.5 kmh 30.54 in1034.2 mb 0.00 in0.0 mm 0.00 in0.0 mm 0.00 in0.0 mm
05:10 PM 32.4°F0.2°C 24.8°F-4.0°C 80% 1.7 mph NE2.7 kmh NE 2.7 mph4.3 kmh 30.54 in1034.2 mb 0.00 in0.0 mm 0.00 in0.0 mm 0.00 in0.0 mm
05:15 PM 32.4°F0.2°C 24.8°F-4.0°C 80% 2.3 mph NE3.7 kmh NE 3.8 mph6.1 kmh 30.54 in1034.2 mb 0.00 in0.0 mm 0.00 in0.0 mm 0.00 in0.0 mm
05:20 PM 32.4°F0.2°C 24.8°F-4.0°C 80% 2.3 mph NE3.7 kmh NE 3.8 mph6.1 kmh 30.54 in1034.2 mb 0.00 in0.0 mm 0.00 in0.0 mm 0.00 in0.0 mm
05:25 PM 32.4°F0.2°C 24.8°F-4.0°C 80% 2.3 mph NE3.7 kmh NE 3.8 mph6.1 kmh 30.54 in1034.2 mb 0.00 in0.0 mm 0.00 in0.0 mm 0.00 in0.0 mm
05:30 PM 32.4°F0.2°C 24.8°F-4.0°C 80% 2.3 mph NE3.7 kmh NE 3.1 mph5.0 kmh 30.54 in1034.2 mb 0.00 in0.0 mm 0.00 in0.0 mm 0.00 in0.0 mm
05:35 PM 32.4°F0.2°C 24.8°F-4.0°C 80% 2.7 mph NE4.3 kmh NE 4.3 mph6.9 kmh 30.54 in1034.2 mb 0.00 in0.0 mm 0.00 in0.0 mm 0.00 in0.0 mm
05:40 PM 32.2°F0.1°C 24.8°F-4.0°C 80% 2.9 mph NE4.7 kmh NE 4.3 mph6.9 kmh 30.54 in1034.2 mb 0.00 in0.0 mm 0.00 in0.0 mm 0.00 in0.0 mm
05:45 PM 32.2°F0.1°C 24.8°F-4.0°C 80% 2.7 mph NE4.3 kmh NE 4.0 mph6.4 kmh 30.54 in1034.2 mb 0.00 in0.0 mm 0.00 in0.0 mm 0.00 in0.0 mm
05:50 PM 32.2°F0.1°C 24.8°F-4.0°C 80% 2.9 mph NE4.7 kmh NE 4.9 mph7.9 kmh 30.54 in1034.2 mb 0.00 in0.0 mm 0.00 in0.0 mm 0.00 in0.0 mm
05:55 PM 32.2°F0.1°C 24.8°F-4.0°C 80% 3.4 mph NE5.5 kmh NE 4.9 mph7.9 kmh 30.54 in1034.2 mb 0.00 in0.0 mm 0.00 in0.0 mm 0.00 in0.0 mm
06:00 PM 32.2°F0.1°C 24.8°F-4.0°C 79% 3.5 mph NE5.6 kmh NE 4.3 mph6.9 kmh 30.54 in1034.2 mb 0.00 in0.0 mm 0.00 in0.0 mm 0.00 in0.0 mm
06:05 PM 32.0°F0.0°C 24.8°F-4.0°C 80% 3.2 mph NE5.1 kmh NE 4.3 mph6.9 kmh 30.54 in1034.2 mb 0.00 in0.0 mm 0.00 in0.0 mm 0.00 in0.0 mm
06:10 PM 31.8°F-0.1°C 24.8°F-4.0°C 80% 2.8 mph NE4.5 kmh NE 3.8 mph6.1 kmh 30.54 in1034.2 mb 0.00 in0.0 mm 0.00 in0.0 mm 0.00 in0.0 mm
06:15 PM 31.8°F-0.1°C 24.8°F-4.0°C 80% 3.0 mph NE4.8 kmh NE 4.3 mph6.9 kmh 30.54 in1034.2 mb 0.00 in0.0 mm 0.00 in0.0 mm 0.00 in0.0 mm
06:20 PM 31.6°F-0.2°C 24.8°F-4.0°C 80% 2.8 mph NE4.5 kmh NE 4.3 mph6.9 kmh 30.54 in1034.2 mb 0.00 in0.0 mm 0.00 in0.0 mm 0.00 in0.0 mm
06:25 PM 31.5°F-0.3°C 24.8°F-4.0°C 80% 2.6 mph NE4.2 kmh NE 3.8 mph6.1 kmh 30.54 in1034.2 mb 0.00 in0.0 mm 0.00 in0.0 mm 0.00 in0.0 mm
06:30 PM 31.5°F-0.3°C 24.8°F-4.0°C 80% 2.5 mph NE4.0 kmh NE 3.8 mph6.1 kmh 30.54 in1034.2 mb 0.00 in0.0 mm 0.00 in0.0 mm 0.00 in0.0 mm
06:35 PM 31.3°F-0.4°C 24.8°F-4.0°C 80% 2.1 mph NE3.4 kmh NE 2.9 mph4.7 kmh 30.54 in1034.2 mb 0.00 in0.0 mm 0.00 in0.0 mm 0.00 in0.0 mm
06:40 PM 31.3°F-0.4°C 24.8°F-4.0°C 80% 1.7 mph NE2.7 kmh NE 2.9 mph4.7 kmh 30.54 in1034.2 mb 0.00 in0.0 mm 0.00 in0.0 mm 0.00 in0.0 mm
06:45 PM 31.1°F-0.5°C 24.8°F-4.0°C 80% 2.0 mph NE3.2 kmh NE 3.8 mph6.1 kmh 30.54 in1034.2 mb 0.00 in0.0 mm 0.00 in0.0 mm 0.00 in0.0 mm
06:50 PM 31.1°F-0.5°C 24.8°F-4.0°C 80% 2.3 mph NE3.7 kmh NE 3.8 mph6.1 kmh 30.54 in1034.2 mb 0.00 in0.0 mm 0.00 in0.0 mm 0.00 in0.0 mm
06:55 PM 30.9°F-0.6°C 23.0°F-5.0°C 80% 2.3 mph NE3.7 kmh NE 3.8 mph6.1 kmh 30.54 in1034.2 mb 0.00 in0.0 mm 0.00 in0.0 mm 0.00 in0.0 mm
07:00 PM 30.9°F-0.6°C 23.0°F-5.0°C 80% 2.4 mph NE3.9 kmh NE 3.4 mph5.5 kmh 30.54 in1034.2 mb 0.00 in0.0 mm 0.00 in0.0 mm 0.00 in0.0 mm
07:05 PM 30.9°F-0.6°C 23.0°F-5.0°C 80% 2.6 mph NE4.2 kmh NE 3.4 mph5.5 kmh 30.54 in1034.2 mb 0.00 in0.0 mm 0.00 in0.0 mm 0.00 in0.0 mm
07:10 PM 30.7°F-0.7°C 23.0°F-5.0°C 80% 2.5 mph NE4.0 kmh NE 3.6 mph5.8 kmh 30.54 in1034.2 mb 0.00 in0.0 mm 0.00 in0.0 mm 0.00 in0.0 mm
07:15 PM 30.7°F-0.7°C 23.0°F-5.0°C 80% 2.2 mph NE3.5 kmh NE 3.6 mph5.8 kmh 30.54 in1034.2 mb 0.00 in0.0 mm 0.00 in0.0 mm 0.00 in0.0 mm
07:20 PM 30.6°F-0.8°C 23.0°F-5.0°C 80% 2.0 mph NE3.2 kmh NE 2.9 mph4.7 kmh 30.54 in1034.2 mb 0.00 in0.0 mm 0.00 in0.0 mm 0.00 in0.0 mm
07:25 PM 30.7°F-0.7°C 23.0°F-5.0°C 80% 2.0 mph NNE3.2 kmh NNE 3.4 mph5.5 kmh 30.54 in1034.2 mb 0.00 in0.0 mm 0.00 in0.0 mm 0.00 in0.0 mm
07:30 PM 30.7°F-0.7°C 23.0°F-5.0°C 81% 2.2 mph NNE3.5 kmh NNE 3.6 mph5.8 kmh 30.54 in1034.2 mb 0.00 in0.0 mm 0.00 in0.0 mm 0.00 in0.0 mm
07:35 PM 30.7°F-0.7°C 23.0°F-5.0°C 81% 2.2 mph N3.5 kmh N 3.6 mph5.8 kmh 30.54 in1034.2 mb 0.00 in0.0 mm 0.00 in0.0 mm 0.00 in0.0 mm
07:40 PM 30.7°F-0.7°C 23.0°F-5.0°C 81% 2.1 mph N3.4 kmh N 2.7 mph4.3 kmh 30.54 in1034.2 mb 0.00 in0.0 mm 0.00 in0.0 mm 0.00 in0.0 mm
07:45 PM 30.9°F-0.6°C 23.0°F-5.0°C 81% 2.0 mph N3.2 kmh N 2.9 mph4.7 kmh 30.54 in1034.2 mb 0.00 in0.0 mm 0.00 in0.0 mm 0.00 in0.0 mm
07:50 PM 30.9°F-0.6°C 23.0°F-5.0°C 81% 2.1 mph NNE3.4 kmh NNE 2.9 mph4.7 kmh 30.54 in1034.2 mb 0.00 in0.0 mm 0.00 in0.0 mm 0.00 in0.0 mm
07:55 PM 30.9°F-0.6°C 23.0°F-5.0°C 81% 2.1 mph NNE3.4 kmh NNE 3.4 mph5.5 kmh 30.54 in1034.2 mb 0.00 in0.0 mm 0.00 in0.0 mm 0.00 in0.0 mm
08:00 PM 30.9°F-0.6°C 23.0°F-5.0°C 81% 2.5 mph N4.0 kmh N 3.6 mph5.8 kmh 30.54 in1034.2 mb 0.00 in0.0 mm 0.00 in0.0 mm 0.00 in0.0 mm
08:05 PM 30.7°F-0.7°C 23.0°F-5.0°C 81% 2.6 mph N4.2 kmh N 3.6 mph5.8 kmh 30.54 in1034.2 mb 0.00 in0.0 mm 0.00 in0.0 mm 0.00 in0.0 mm
08:10 PM 30.7°F-0.7°C 23.0°F-5.0°C 81% 2.7 mph NNE4.3 kmh NNE 3.6 mph5.8 kmh 30.54 in1034.2 mb 0.00 in0.0 mm 0.00 in0.0 mm 0.00 in0.0 mm
08:15 PM 30.7°F-0.7°C 23.0°F-5.0°C 81% 2.5 mph N4.0 kmh N 3.6 mph5.8 kmh 30.54 in1034.2 mb 0.00 in0.0 mm 0.00 in0.0 mm 0.00 in0.0 mm
08:20 PM 30.6°F-0.8°C 23.0°F-5.0°C 81% 1.9 mph NNE3.1 kmh NNE 2.7 mph4.3 kmh 30.54 in1034.2 mb 0.00 in0.0 mm 0.00 in0.0 mm 0.00 in0.0 mm
08:25 PM 30.2°F-1.0°C 23.0°F-5.0°C 81% 1.9 mph NE3.1 kmh NE 2.7 mph4.3 kmh 30.54 in1034.2 mb 0.00 in0.0 mm 0.00 in0.0 mm 0.00 in0.0 mm
08:30 PM 30.2°F-1.0°C 23.0°F-5.0°C 81% 1.9 mph NE3.1 kmh NE 2.7 mph4.3 kmh 30.54 in1034.2 mb 0.00 in0.0 mm 0.00 in0.0 mm 0.00 in0.0 mm
08:35 PM 29.8°F-1.2°C 23.0°F-5.0°C 81% 2.0 mph NE3.2 kmh NE 3.4 mph5.5 kmh 30.54 in1034.2 mb 0.00 in0.0 mm 0.00 in0.0 mm 0.00 in0.0 mm
08:40 PM 29.8°F-1.2°C 23.0°F-5.0°C 81% 1.8 mph NE2.9 kmh NE 3.4 mph5.5 kmh 30.54 in1034.2 mb 0.00 in0.0 mm 0.00 in0.0 mm 0.00 in0.0 mm
08:45 PM 29.7°F-1.3°C 23.0°F-5.0°C 81% 1.7 mph NE2.7 kmh NE 2.7 mph4.3 kmh 30.54 in1034.2 mb 0.00 in0.0 mm 0.00 in0.0 mm 0.00 in0.0 mm
08:50 PM 29.7°F-1.3°C 23.0°F-5.0°C 81% 2.1 mph NE3.4 kmh NE 3.1 mph5.0 kmh 30.54 in1034.2 mb 0.00 in0.0 mm 0.00 in0.0 mm 0.00 in0.0 mm
08:55 PM 29.3°F-1.5°C 23.0°F-5.0°C 81% 1.9 mph NE3.1 kmh NE 3.1 mph5.0 kmh 30.54 in1034.2 mb 0.00 in0.0 mm 0.00 in0.0 mm 0.00 in0.0 mm
09:00 PM 29.1°F-1.6°C 23.0°F-5.0°C 81% 1.5 mph NE2.4 kmh NE 3.4 mph5.5 kmh 30.54 in1034.2 mb 0.00 in0.0 mm 0.00 in0.0 mm 0.00 in0.0 mm
09:05 PM 29.1°F-1.6°C 23.0°F-5.0°C 81% 1.8 mph NE2.9 kmh NE 3.4 mph5.5 kmh 30.54 in1034.2 mb 0.00 in0.0 mm 0.00 in0.0 mm 0.00 in0.0 mm
09:10 PM 29.3°F-1.5°C 23.0°F-5.0°C 81% 2.3 mph NE3.7 kmh NE 3.4 mph5.5 kmh 30.54 in1034.2 mb 0.00 in0.0 mm 0.00 in0.0 mm 0.00 in0.0 mm
09:15 PM 29.3°F-1.5°C 23.0°F-5.0°C 81% 2.5 mph NE4.0 kmh NE 3.4 mph5.5 kmh 30.54 in1034.2 mb 0.00 in0.0 mm 0.00 in0.0 mm 0.00 in0.0 mm
09:20 PM 29.3°F-1.5°C 23.0°F-5.0°C 82% 2.3 mph NE3.7 kmh NE 3.4 mph5.5 kmh 30.54 in1034.2 mb 0.00 in0.0 mm 0.00 in0.0 mm 0.00 in0.0 mm
09:25 PM 29.3°F-1.5°C 23.0°F-5.0°C 82% 2.3 mph NE3.7 kmh NE 3.4 mph5.5 kmh 30.54 in1034.2 mb 0.00 in0.0 mm 0.00 in0.0 mm 0.00 in0.0 mm
09:30 PM 29.3°F-1.5°C 23.0°F-5.0°C 82% 2.6 mph NE4.2 kmh NE 3.8 mph6.1 kmh 30.54 in1034.2 mb 0.00 in0.0 mm 0.00 in0.0 mm 0.00 in0.0 mm
09:35 PM 29.5°F-1.4°C 23.0°F-5.0°C 82% 2.7 mph ENE4.3 kmh ENE 3.8 mph6.1 kmh 30.54 in1034.2 mb 0.00 in0.0 mm 0.00 in0.0 mm 0.00 in0.0 mm
09:40 PM 29.7°F-1.3°C 23.0°F-5.0°C 82% 2.6 mph ENE4.2 kmh ENE 4.0 mph6.4 kmh 30.54 in1034.2 mb 0.00 in0.0 mm 0.00 in0.0 mm 0.00 in0.0 mm
09:45 PM 29.8°F-1.2°C 23.0°F-5.0°C 82% 2.8 mph NE4.5 kmh NE 4.0 mph6.4 kmh 30.54 in1034.2 mb 0.00 in0.0 mm 0.00 in0.0 mm 0.00 in0.0 mm
09:50 PM 29.7°F-1.3°C 23.0°F-5.0°C 82% 2.9 mph NE4.7 kmh NE 4.9 mph7.9 kmh 30.54 in1034.2 mb 0.00 in0.0 mm 0.00 in0.0 mm 0.00 in0.0 mm
09:55 PM 30.2°F-1.0°C 23.0°F-5.0°C 82% 3.7 mph ENE6.0 kmh ENE 6.0 mph9.7 kmh 30.54 in1034.2 mb 0.00 in0.0 mm 0.00 in0.0 mm 0.00 in0.0 mm
10:00 PM 30.6°F-0.8°C 24.8°F-4.0°C 82% 3.7 mph ENE6.0 kmh ENE 6.0 mph9.7 kmh 30.54 in1034.2 mb 0.00 in0.0 mm 0.00 in0.0 mm 0.00 in0.0 mm
10:05 PM 30.6°F-0.8°C 24.8°F-4.0°C 82% 3.1 mph E5.0 kmh E 5.4 mph8.7 kmh 30.54 in1034.2 mb 0.00 in0.0 mm 0.00 in0.0 mm 0.00 in0.0 mm
10:10 PM 30.9°F-0.6°C 24.8°F-4.0°C 82% 3.2 mph E5.1 kmh E 4.9 mph7.9 kmh 30.54 in1034.2 mb 0.00 in0.0 mm 0.00 in0.0 mm 0.00 in0.0 mm
10:15 PM 31.5°F-0.3°C 24.8°F-4.0°C 82% 3.4 mph ENE5.5 kmh ENE 5.4 mph8.7 kmh 30.54 in1034.2 mb 0.00 in0.0 mm 0.00 in0.0 mm 0.00 in0.0 mm
10:20 PM 31.5°F-0.3°C 24.8°F-4.0°C 82% 4.0 mph ENE6.4 kmh ENE 6.3 mph10.1 kmh 30.54 in1034.2 mb 0.00 in0.0 mm 0.00 in0.0 mm 0.00 in0.0 mm
10:25 PM 31.5°F-0.3°C 24.8°F-4.0°C 82% 4.5 mph ENE7.2 kmh ENE 6.3 mph10.1 kmh 30.54 in1034.2 mb 0.00 in0.0 mm 0.00 in0.0 mm 0.00 in0.0 mm
10:30 PM 31.3°F-0.4°C 24.8°F-4.0°C 81% 3.9 mph E6.3 kmh E 5.4 mph8.7 kmh 30.54 in1034.2 mb 0.00 in0.0 mm 0.00 in0.0 mm 0.00 in0.0 mm
10:35 PM 31.5°F-0.3°C 24.8°F-4.0°C 81% 3.5 mph ENE5.6 kmh ENE 5.8 mph9.3 kmh 30.54 in1034.2 mb 0.00 in0.0 mm 0.00 in0.0 mm 0.00 in0.0 mm
10:40 PM 31.6°F-0.2°C 24.8°F-4.0°C 81% 3.2 mph ENE5.1 kmh ENE 5.8 mph9.3 kmh 30.54 in1034.2 mb 0.00 in0.0 mm 0.00 in0.0 mm 0.00 in0.0 mm
10:45 PM 31.6°F-0.2°C 24.8°F-4.0°C 81% 3.2 mph E5.1 kmh E 4.3 mph6.9 kmh 30.54 in1034.2 mb 0.00 in0.0 mm 0.00 in0.0 mm 0.00 in0.0 mm
10:50 PM 31.6°F-0.2°C 24.8°F-4.0°C 81% 3.4 mph E5.5 kmh E 4.3 mph6.9 kmh 30.51 in1033.2 mb 0.00 in0.0 mm 0.00 in0.0 mm 0.00 in0.0 mm
10:55 PM 31.8°F-0.1°C 24.8°F-4.0°C 80% 3.3 mph E5.3 kmh E 4.0 mph6.4 kmh 30.51 in1033.2 mb 0.00 in0.0 mm 0.00 in0.0 mm 0.00 in0.0 mm
11:00 PM 31.8°F-0.1°C 24.8°F-4.0°C 80% 3.8 mph E6.1 kmh E 6.3 mph10.1 kmh 30.51 in1033.2 mb 0.00 in0.0 mm 0.00 in0.0 mm 0.00 in0.0 mm
11:05 PM 32.4°F0.2°C 24.8°F-4.0°C 80% 5.4 mph E8.7 kmh E 8.1 mph13.0 kmh 30.51 in1033.2 mb 0.00 in0.0 mm 0.00 in0.0 mm 0.00 in0.0 mm
11:10 PM 32.2°F0.1°C 24.8°F-4.0°C 80% 5.8 mph E9.3 kmh E 11.0 mph17.7 kmh 30.51 in1033.2 mb 0.00 in0.0 mm 0.00 in0.0 mm 0.00 in0.0 mm
11:15 PM 32.0°F0.0°C 24.8°F-4.0°C 79% 5.7 mph E9.2 kmh E 11.0 mph17.7 kmh 30.51 in1033.2 mb 0.00 in0.0 mm 0.00 in0.0 mm 0.00 in0.0 mm
11:20 PM 32.4°F0.2°C 24.8°F-4.0°C 79% 5.0 mph E8.0 kmh E 8.1 mph13.0 kmh 30.51 in1033.2 mb 0.00 in0.0 mm 0.00 in0.0 mm 0.00 in0.0 mm
11:25 PM 32.4°F0.2°C 24.8°F-4.0°C 79% 4.8 mph E7.7 kmh E 7.2 mph11.6 kmh 30.51 in1033.2 mb 0.00 in0.0 mm 0.00 in0.0 mm 0.00 in0.0 mm
11:30 PM 32.4°F0.2°C 24.8°F-4.0°C 79% 5.1 mph E8.2 kmh E 6.5 mph10.5 kmh 30.51 in1033.2 mb 0.00 in0.0 mm 0.00 in0.0 mm 0.00 in0.0 mm
11:35 PM 32.4°F0.2°C 24.8°F-4.0°C 79% 5.3 mph E8.5 kmh E 6.3 mph10.1 kmh 30.51 in1033.2 mb 0.00 in0.0 mm 0.00 in0.0 mm 0.00 in0.0 mm
11:40 PM 32.4°F0.2°C 24.8°F-4.0°C 79% 5.5 mph E8.9 kmh E 8.1 mph13.0 kmh 30.51 in1033.2 mb 0.00 in0.0 mm 0.00 in0.0 mm 0.00 in0.0 mm
11:45 PM 32.4°F0.2°C 24.8°F-4.0°C 78% 5.6 mph E9.0 kmh E 8.1 mph13.0 kmh 30.51 in1033.2 mb 0.00 in0.0 mm 0.00 in0.0 mm 0.00 in0.0 mm
11:50 PM 32.4°F0.2°C 24.8°F-4.0°C 78% 6.4 mph ESE10.3 kmh ESE 11.9 mph19.2 kmh 30.51 in1033.2 mb 0.00 in0.0 mm 0.00 in0.0 mm 0.00 in0.0 mm
11:55 PM 32.5°F0.3°C 26.6°F-3.0°C 78% 6.7 mph E10.8 kmh E 11.9 mph19.2 kmh 30.51 in1033.2 mb 0.00 in0.0 mm 0.00 in0.0 mm 0.00 in0.0 mm